createdAt,value
2022-08-01T00:03:33.319Z,19.49
2022-08-01T00:06:00.462Z,19.45
2022-08-01T00:08:27.391Z,19.44
2022-08-01T00:10:54.241Z,19.42
2022-08-01T00:13:34.410Z,19.53
2022-08-01T00:16:01.991Z,19.56
2022-08-01T00:18:29.023Z,19.59
2022-08-01T00:20:56.095Z,19.62
2022-08-01T00:23:23.151Z,19.64
2022-08-01T00:25:50.152Z,19.65
2022-08-01T00:28:17.710Z,19.71
2022-08-01T00:30:44.682Z,19.65
2022-08-01T00:33:11.833Z,19.68
2022-08-01T00:35:38.834Z,19.72
2022-08-01T00:38:05.732Z,19.74
2022-08-01T00:40:32.810Z,19.71
2022-08-01T00:42:59.814Z,19.74
2022-08-01T00:45:27.344Z,19.71
2022-08-01T00:47:55.195Z,19.70
2022-08-01T00:50:22.703Z,19.71
2022-08-01T00:52:52.504Z,19.72
2022-08-01T00:55:21.500Z,19.64
2022-08-01T00:58:05.036Z,19.63
2022-08-01T01:00:53.867Z,19.69
2022-08-01T01:03:49.377Z,19.56
2022-08-01T01:06:28.124Z,19.34
2022-08-01T01:09:06.583Z,19.42
2022-08-01T01:11:45.431Z,19.30
2022-08-01T01:14:22.570Z,19.28
2022-08-01T01:16:51.210Z,19.20
2022-08-01T01:19:24.710Z,19.18
2022-08-01T01:22:20.992Z,19.16
2022-08-01T01:25:06.963Z,19.17
2022-08-01T01:28:01.682Z,19.21
2022-08-01T01:30:31.123Z,19.27
2022-08-01T01:33:01.430Z,19.31
2022-08-01T01:35:32.990Z,19.25
2022-08-01T01:38:06.630Z,19.33
2022-08-01T01:40:34.667Z,19.22
2022-08-01T01:43:01.640Z,19.11
2022-08-01T01:45:30.730Z,19.11
2022-08-01T01:47:59.290Z,19.00
2022-08-01T01:50:28.563Z,19.03
2022-08-01T01:52:57.230Z,18.99
2022-08-01T01:55:25.343Z,18.99
2022-08-01T01:57:55.194Z,18.85
2022-08-01T02:00:24.945Z,18.84
2022-08-01T02:02:54.350Z,18.87
2022-08-01T02:05:22.302Z,18.79
2022-08-01T02:07:50.936Z,18.82
2022-08-01T02:10:19.541Z,18.78
2022-08-01T02:12:48.651Z,18.69
2022-08-01T02:15:16.864Z,18.62
2022-08-01T02:17:48.487Z,18.60
2022-08-01T02:20:15.712Z,18.54
2022-08-01T02:22:53.554Z,18.55
2022-08-01T02:25:32.831Z,18.53
2022-08-01T02:28:04.964Z,18.52
2022-08-01T02:30:36.353Z,18.52
2022-08-01T02:33:15.428Z,18.52
2022-08-01T02:36:30.375Z,18.49
2022-08-01T02:38:36.311Z,18.54
2022-08-01T02:41:10.632Z,18.55
2022-08-01T02:43:53.067Z,18.50
2022-08-01T02:46:27.092Z,18.32
2022-08-01T02:48:56.854Z,18.34
2022-08-01T02:51:25.311Z,18.07
2022-08-01T02:53:54.952Z,18.08
2022-08-01T02:56:24.252Z,18.00
2022-08-01T02:58:52.311Z,17.95
2022-08-01T03:01:22.358Z,18.08
2022-08-01T03:03:49.664Z,18.02
2022-08-01T03:06:18.405Z,17.89
2022-08-01T03:08:47.522Z,18.03
2022-08-01T03:11:16.282Z,18.04
2022-08-01T03:13:46.491Z,18.14
2022-08-01T03:16:14.688Z,18.19
2022-08-01T03:18:46.050Z,18.21
2022-08-01T03:21:15.425Z,18.13
2022-08-01T03:23:44.004Z,17.96
2022-08-01T03:26:12.094Z,18.11
2022-08-01T03:28:40.512Z,17.97
2022-08-01T03:31:07.634Z,17.91
2022-08-01T03:33:34.963Z,17.89
2022-08-01T03:36:04.923Z,17.82
2022-08-01T03:38:35.313Z,17.76
2022-08-01T03:41:21.841Z,17.74
2022-08-01T03:43:56.242Z,17.75
2022-08-01T03:46:34.563Z,17.88
2022-08-01T03:49:05.416Z,17.97
2022-08-01T03:51:33.902Z,18.08
2022-08-01T03:54:02.312Z,18.26
2022-08-01T03:56:33.065Z,18.36
2022-08-01T03:59:02.334Z,18.27
2022-08-01T04:01:31.089Z,18.48
2022-08-01T04:04:00.504Z,18.67
2022-08-01T04:06:27.742Z,18.87
2022-08-01T04:08:58.442Z,18.98
2022-08-01T04:11:28.403Z,19.03
2022-08-01T04:13:56.942Z,19.05
2022-08-01T04:16:25.034Z,19.30
2022-08-01T04:18:52.382Z,19.44
2022-08-01T04:21:24.156Z,19.69
2022-08-01T04:23:54.012Z,19.75
2022-08-01T04:26:23.172Z,19.98
2022-08-01T04:28:52.722Z,19.92
2022-08-01T04:31:20.625Z,20.27
2022-08-01T04:33:50.954Z,19.99
2022-08-01T04:36:24.075Z,20.26
2022-08-01T04:38:57.139Z,20.35
2022-08-01T04:41:25.254Z,20.23
2022-08-01T04:43:53.348Z,20.52
2022-08-01T04:46:20.843Z,20.77
2022-08-01T04:48:48.602Z,20.90
2022-08-01T04:51:17.304Z,21.07
2022-08-01T04:53:49.634Z,21.12
2022-08-01T04:56:16.516Z,21.41
2022-08-01T04:58:44.774Z,21.64
2022-08-01T05:01:12.434Z,21.76
2022-08-01T05:03:39.825Z,22.19
2022-08-01T05:06:07.225Z,22.60
2022-08-01T05:08:34.275Z,22.53
2022-08-01T05:11:02.424Z,22.82
2022-08-01T05:13:29.448Z,22.97
2022-08-01T05:15:56.656Z,23.13
2022-08-01T05:18:27.981Z,23.10
2022-08-01T05:20:56.293Z,23.07
2022-08-01T05:23:36.540Z,23.16
2022-08-01T05:26:10.708Z,23.63
2022-08-01T05:28:37.624Z,23.81
2022-08-01T05:31:04.954Z,24.03
2022-08-01T05:33:32.144Z,24.29
2022-08-01T05:35:59.182Z,24.67
2022-08-01T05:38:26.235Z,24.80
2022-08-01T05:40:53.223Z,25.02
2022-08-01T05:43:20.463Z,25.40
2022-08-01T05:45:48.363Z,25.62
2022-08-01T05:48:15.452Z,25.86
2022-08-01T05:50:42.484Z,26.02
2022-08-01T05:53:09.575Z,26.08
2022-08-01T05:55:36.832Z,26.08
2022-08-01T05:58:04.123Z,26.25
2022-08-01T06:00:31.152Z,26.38
2022-08-01T06:02:58.150Z,26.78
2022-08-01T06:05:25.072Z,26.90
2022-08-01T06:07:52.075Z,26.89
2022-08-01T06:10:19.535Z,26.97
2022-08-01T06:12:46.835Z,27.21
2022-08-01T06:15:13.892Z,27.46
2022-08-01T06:17:42.474Z,27.43
2022-08-01T06:20:10.225Z,27.81
2022-08-01T06:22:37.254Z,28.22
2022-08-01T06:25:05.658Z,28.39
2022-08-01T06:27:36.344Z,28.64
2022-08-01T06:30:05.152Z,28.90
2022-08-01T06:32:32.327Z,28.95
2022-08-01T06:34:59.384Z,29.26
2022-08-01T06:37:31.397Z,29.54
2022-08-01T06:40:16.318Z,29.36
2022-08-01T06:42:45.443Z,29.76
2022-08-01T06:45:13.768Z,30.12
2022-08-01T06:47:41.628Z,30.04
2022-08-01T06:50:11.283Z,29.94
2022-08-01T06:52:39.360Z,30.15
2022-08-01T06:55:06.913Z,30.36
2022-08-01T06:57:34.072Z,30.54
2022-08-01T07:00:12.630Z,30.62
2022-08-01T07:02:39.664Z,30.02
2022-08-01T07:05:06.839Z,30.25
2022-08-01T07:07:33.795Z,30.22
2022-08-01T07:10:00.663Z,30.39
2022-08-01T07:12:27.702Z,30.55
2022-08-01T07:14:54.622Z,30.72
2022-08-01T07:17:22.004Z,30.45
2022-08-01T07:19:49.382Z,30.34
2022-08-01T07:22:23.146Z,30.37
2022-08-01T07:24:54.370Z,30.58
2022-08-01T07:27:25.709Z,30.69
2022-08-01T07:29:53.779Z,30.76
2022-08-01T07:32:21.112Z,30.82
2022-08-01T07:34:48.085Z,30.93
2022-08-01T07:37:15.115Z,31.02
2022-08-01T07:39:42.002Z,31.13
2022-08-01T07:42:09.617Z,31.11
2022-08-01T07:44:37.831Z,31.11
2022-08-01T07:47:05.931Z,31.18
2022-08-01T07:49:36.251Z,31.08
2022-08-01T07:52:06.741Z,31.45
2022-08-01T07:54:34.676Z,31.71
2022-08-01T07:57:03.014Z,31.46
2022-08-01T07:59:30.004Z,31.59
2022-08-01T08:01:57.067Z,31.50
2022-08-01T08:04:24.113Z,31.31
2022-08-01T08:06:51.215Z,31.74
2022-08-01T08:09:18.262Z,31.89
2022-08-01T08:11:47.768Z,31.79
2022-08-01T08:14:16.245Z,31.82
2022-08-01T08:16:44.197Z,32.17
2022-08-01T08:19:11.892Z,31.99
2022-08-01T08:21:39.428Z,32.27
2022-08-01T08:24:26.961Z,32.22
2022-08-01T08:26:59.552Z,31.86
2022-08-01T08:29:28.361Z,31.96
2022-08-01T08:31:57.198Z,32.24
2022-08-01T08:34:25.223Z,32.46
2022-08-01T08:36:52.808Z,32.48
2022-08-01T08:39:20.829Z,32.20
2022-08-01T08:41:49.374Z,32.38
2022-08-01T08:44:18.112Z,32.38
2022-08-01T08:46:48.235Z,32.56
2022-08-01T08:49:21.211Z,32.76
2022-08-01T08:51:54.916Z,33.14
2022-08-01T08:54:31.394Z,32.90
2022-08-01T08:57:00.694Z,32.56
2022-08-01T08:59:29.497Z,32.39
2022-08-01T09:01:57.402Z,32.44
2022-08-01T09:04:27.058Z,32.66
2022-08-01T09:06:55.667Z,32.53
2022-08-01T09:09:23.896Z,32.62
2022-08-01T09:11:56.578Z,32.97
2022-08-01T09:14:27.411Z,33.05
2022-08-01T09:17:07.914Z,33.11
2022-08-01T09:19:48.871Z,33.20
2022-08-01T09:22:25.338Z,33.26
2022-08-01T09:25:10.802Z,33.01
2022-08-01T09:27:44.418Z,33.17
2022-08-01T09:30:23.960Z,33.35
2022-08-01T09:33:11.039Z,33.31
2022-08-01T09:35:46.513Z,33.54
2022-08-01T09:38:23.386Z,33.22
2022-08-01T09:40:58.237Z,33.42
2022-08-01T09:43:28.545Z,33.64
2022-08-01T09:45:58.963Z,33.85
2022-08-01T09:48:28.366Z,33.64
2022-08-01T09:51:04.423Z,33.35
2022-08-01T09:53:50.860Z,33.29
2022-08-01T09:56:20.437Z,32.85
2022-08-01T09:59:14.024Z,32.88
2022-08-01T10:01:49.992Z,32.57
2022-08-01T10:04:22.406Z,32.57
2022-08-01T10:06:55.311Z,33.05
2022-08-01T10:09:40.299Z,32.85
2022-08-01T10:12:09.161Z,32.48
2022-08-01T10:14:46.237Z,32.66
2022-08-01T10:17:18.534Z,32.90
2022-08-01T10:19:48.230Z,33.07
2022-08-01T10:22:17.836Z,32.94
2022-08-01T10:24:49.194Z,32.69
2022-08-01T10:27:21.623Z,32.90
2022-08-01T10:30:16.794Z,32.76
2022-08-01T10:32:56.314Z,33.14
2022-08-01T10:35:47.255Z,33.34
2022-08-01T10:38:13.838Z,33.50
2022-08-01T10:40:44.454Z,33.72
2022-08-01T10:43:12.616Z,33.75
2022-08-01T10:45:41.285Z,33.36
2022-08-01T10:48:20.918Z,33.20
2022-08-01T10:50:52.605Z,33.60
2022-08-01T10:53:31.297Z,33.46
2022-08-01T10:56:12.944Z,32.28
2022-08-01T10:58:44.113Z,32.33
2022-08-01T11:01:28.209Z,32.50
2022-08-01T11:04:03.143Z,32.71
2022-08-01T11:06:33.874Z,32.57
2022-08-01T11:09:37.226Z,32.50
2022-08-01T11:12:24.710Z,32.67
2022-08-01T11:15:03.410Z,32.36
2022-08-01T11:17:54.833Z,32.05
2022-08-01T11:20:31.647Z,32.23
2022-08-01T11:23:02.976Z,32.33
2022-08-01T11:26:06.468Z,32.41
2022-08-01T11:28:41.203Z,32.46
2022-08-01T11:31:17.723Z,32.56
2022-08-01T11:33:47.068Z,31.96
2022-08-01T11:36:15.434Z,31.85
2022-08-01T11:38:43.550Z,32.21
2022-08-01T11:41:37.074Z,32.25
2022-08-01T11:44:21.136Z,32.27
2022-08-01T11:47:00.602Z,31.96
2022-08-01T11:49:34.070Z,31.84
2022-08-01T11:52:36.641Z,31.36
2022-08-01T11:55:03.743Z,32.03
2022-08-01T11:57:38.949Z,32.21
2022-08-01T12:00:19.580Z,32.17
2022-08-01T12:02:51.568Z,32.07
2022-08-01T12:05:24.769Z,32.10
2022-08-01T12:07:53.624Z,31.73
2022-08-01T12:10:23.794Z,31.85
2022-08-01T12:12:59.355Z,31.50
2022-08-01T12:15:32.695Z,31.45
2022-08-01T12:18:06.064Z,31.57
2022-08-01T12:20:42.744Z,31.87
2022-08-01T12:23:28.021Z,31.92
2022-08-01T12:25:58.192Z,32.17
2022-08-01T12:28:26.270Z,32.38
2022-08-01T12:30:53.942Z,32.46
2022-08-01T12:33:24.164Z,32.44
2022-08-01T12:35:51.732Z,32.31
2022-08-01T12:38:24.272Z,32.41
2022-08-01T12:40:58.122Z,31.87
2022-08-01T12:43:29.563Z,32.17
2022-08-01T12:46:00.814Z,32.30
2022-08-01T12:48:31.293Z,32.26
2022-08-01T12:51:01.765Z,32.11
2022-08-01T12:53:40.257Z,32.35
2022-08-01T12:56:15.834Z,32.27
2022-08-01T12:59:02.555Z,32.09
2022-08-01T13:01:35.927Z,32.13
2022-08-01T13:04:10.716Z,32.51
2022-08-01T13:06:41.389Z,32.02
2022-08-01T13:09:18.285Z,32.26
2022-08-01T13:12:03.654Z,32.17
2022-08-01T13:14:41.658Z,32.21
2022-08-01T13:17:10.037Z,32.45
2022-08-01T13:20:02.977Z,32.35
2022-08-01T13:22:38.417Z,32.35
2022-08-01T13:25:20.834Z,31.87
2022-08-01T13:27:53.713Z,31.43
2022-08-01T13:30:23.276Z,31.15
2022-08-01T13:33:01.687Z,31.30
2022-08-01T13:35:29.036Z,31.67
2022-08-01T13:37:57.987Z,31.65
2022-08-01T13:40:29.307Z,31.33
2022-08-01T13:42:58.006Z,31.45
2022-08-01T13:45:26.554Z,31.46
2022-08-01T13:48:03.889Z,31.51
2022-08-01T13:50:53.369Z,31.47
2022-08-01T13:53:40.760Z,31.46
2022-08-01T13:56:19.126Z,31.57
2022-08-01T13:58:47.989Z,31.53
2022-08-01T14:01:19.933Z,31.62
2022-08-01T14:03:49.356Z,31.70
2022-08-01T14:06:22.620Z,31.59
2022-08-01T14:08:51.558Z,31.25
2022-08-01T14:11:21.445Z,31.30
2022-08-01T14:13:51.114Z,31.44
2022-08-01T14:16:18.736Z,31.54
2022-08-01T14:18:47.726Z,31.46
2022-08-01T14:21:16.529Z,31.50
2022-08-01T14:23:47.308Z,31.47
2022-08-01T14:26:14.956Z,31.44
2022-08-01T14:28:52.107Z,31.35
2022-08-01T14:31:22.357Z,31.56
2022-08-01T14:34:06.975Z,31.51
2022-08-01T14:36:46.336Z,31.69
2022-08-01T14:39:15.746Z,31.28
2022-08-01T14:41:42.706Z,31.51
2022-08-01T14:44:10.136Z,31.51
2022-08-01T14:46:37.298Z,31.43
2022-08-01T14:49:18.326Z,31.45
2022-08-01T14:51:45.330Z,31.43
2022-08-01T14:54:15.197Z,31.19
2022-08-01T14:56:42.450Z,30.96
2022-08-01T14:59:21.121Z,30.86
2022-08-01T15:01:48.767Z,30.84
2022-08-01T15:04:15.887Z,30.76
2022-08-01T15:06:42.911Z,30.73
2022-08-01T15:09:09.787Z,30.94
2022-08-01T15:11:36.738Z,30.67
2022-08-01T15:14:22.989Z,30.79
2022-08-01T15:16:49.927Z,30.72
2022-08-01T15:19:17.728Z,30.71
2022-08-01T15:21:44.717Z,30.70
2022-08-01T15:24:11.708Z,30.84
2022-08-01T15:26:38.609Z,30.86
2022-08-01T15:29:05.528Z,30.70
2022-08-01T15:31:36.489Z,30.66
2022-08-01T15:34:06.487Z,30.74
2022-08-01T15:36:34.075Z,30.37
2022-08-01T15:39:02.600Z,30.54
2022-08-01T15:41:30.185Z,30.41
2022-08-01T15:43:58.219Z,30.32
2022-08-01T15:46:26.498Z,30.22
2022-08-01T15:48:53.931Z,30.24
2022-08-01T15:51:21.523Z,30.15
2022-08-01T15:53:48.895Z,30.15
2022-08-01T15:56:16.346Z,29.83
2022-08-01T15:58:43.489Z,29.67
2022-08-01T16:01:11.186Z,29.72
2022-08-01T16:03:41.734Z,29.88
2022-08-01T16:06:09.793Z,29.72
2022-08-01T16:08:39.284Z,29.67
2022-08-01T16:11:07.506Z,29.57
2022-08-01T16:13:34.390Z,29.63
2022-08-01T16:16:03.064Z,29.57
2022-08-01T16:18:29.983Z,29.53
2022-08-01T16:20:59.075Z,29.51
2022-08-01T16:23:26.224Z,29.57
2022-08-01T16:25:53.627Z,29.42
2022-08-01T16:28:21.715Z,29.26
2022-08-01T16:31:01.351Z,29.29
2022-08-01T16:33:45.582Z,29.24
2022-08-01T16:36:24.727Z,29.30
2022-08-01T16:38:51.956Z,29.23
2022-08-01T16:41:20.294Z,29.03
2022-08-01T16:43:53.998Z,29.06
2022-08-01T16:46:24.606Z,28.83
2022-08-01T16:48:51.779Z,28.71
2022-08-01T16:51:18.931Z,28.80
2022-08-01T16:53:46.216Z,28.71
2022-08-01T16:56:13.275Z,28.71
2022-08-01T16:58:40.363Z,28.59
2022-08-01T17:02:00.837Z,28.58
2022-08-01T17:03:59.422Z,28.50
2022-08-01T17:06:29.609Z,28.42
2022-08-01T17:08:59.740Z,28.38
2022-08-01T17:11:26.980Z,28.27
2022-08-01T17:13:53.858Z,28.25
2022-08-01T17:16:21.005Z,28.16
2022-08-01T17:18:48.145Z,28.05
2022-08-01T17:21:15.485Z,27.93
2022-08-01T17:23:42.651Z,27.92
2022-08-01T17:26:09.867Z,27.77
2022-08-01T17:28:36.971Z,27.77
2022-08-01T17:31:07.428Z,27.71
2022-08-01T17:33:46.201Z,27.62
2022-08-01T17:36:15.228Z,27.50
2022-08-01T17:38:42.445Z,27.48
2022-08-01T17:41:10.920Z,27.30
2022-08-01T17:43:38.098Z,27.29
2022-08-01T17:46:05.187Z,27.17
2022-08-01T17:48:32.397Z,27.09
2022-08-01T17:50:59.535Z,26.94
2022-08-01T17:53:26.972Z,26.87
2022-08-01T17:55:59.135Z,26.78
2022-08-01T17:58:50.220Z,26.74
2022-08-01T18:01:17.096Z,26.62
2022-08-01T18:03:45.158Z,26.52
2022-08-01T18:06:23.134Z,26.49
2022-08-01T18:08:55.635Z,26.43
2022-08-01T18:11:27.231Z,26.29
2022-08-01T18:13:59.790Z,26.19
2022-08-01T18:16:27.636Z,26.15
2022-08-01T18:18:56.338Z,26.17
2022-08-01T18:21:24.035Z,25.96
2022-08-01T18:23:52.304Z,25.98
2022-08-01T18:26:21.496Z,25.95
2022-08-01T18:28:49.464Z,25.85
2022-08-01T18:31:18.066Z,25.87
2022-08-01T18:33:45.460Z,25.76
2022-08-01T18:36:32.141Z,25.78
2022-08-01T18:39:00.712Z,25.74
2022-08-01T18:41:28.871Z,25.68
2022-08-01T18:44:05.306Z,25.59
2022-08-01T18:46:38.942Z,25.51
2022-08-01T18:49:07.958Z,25.42
2022-08-01T18:51:40.215Z,25.34
2022-08-01T18:54:10.638Z,25.22
2022-08-01T18:56:37.951Z,25.15
2022-08-01T18:59:07.565Z,25.02
2022-08-01T19:01:34.819Z,25.00
2022-08-01T19:04:02.627Z,25.02
2022-08-01T19:06:29.681Z,24.91
2022-08-01T19:09:02.109Z,24.92
2022-08-01T19:11:31.321Z,24.88
2022-08-01T19:13:58.893Z,24.91
2022-08-01T19:16:27.613Z,24.88
2022-08-01T19:18:54.610Z,24.82
2022-08-01T19:21:22.911Z,24.65
2022-08-01T19:24:08.253Z,24.37
2022-08-01T19:26:36.460Z,24.54
2022-08-01T19:29:19.740Z,24.37
2022-08-01T19:31:49.331Z,24.40
2022-08-01T19:34:26.604Z,24.22
2022-08-01T19:36:56.998Z,24.00
2022-08-01T19:39:27.320Z,23.73
2022-08-01T19:41:56.270Z,23.89
2022-08-01T19:44:25.242Z,23.82
2022-08-01T19:46:53.545Z,23.96
2022-08-01T19:49:22.423Z,23.85
2022-08-01T19:52:00.001Z,23.85
2022-08-01T19:54:32.756Z,23.72
2022-08-01T19:57:02.175Z,23.62
2022-08-01T19:59:32.206Z,23.51
2022-08-01T20:01:59.969Z,23.61
2022-08-01T20:04:28.409Z,23.59
2022-08-01T20:06:55.869Z,23.67
2022-08-01T20:09:23.527Z,23.53
2022-08-01T20:11:54.689Z,23.58
2022-08-01T20:14:25.430Z,23.56
2022-08-01T20:16:54.852Z,23.59
2022-08-01T20:19:28.386Z,23.49
2022-08-01T20:22:06.427Z,23.42
2022-08-01T20:24:43.417Z,23.45
2022-08-01T20:27:11.647Z,23.43
2022-08-01T20:29:39.547Z,23.24
2022-08-01T20:32:08.178Z,23.38
2022-08-01T20:34:39.735Z,23.21
2022-08-01T20:37:12.790Z,23.35
2022-08-01T20:39:44.293Z,23.34
2022-08-01T20:42:13.579Z,23.18
2022-08-01T20:44:41.957Z,23.12
2022-08-01T20:47:09.835Z,23.12
2022-08-01T20:49:38.388Z,23.19
2022-08-01T20:52:11.748Z,23.09
2022-08-01T20:54:41.134Z,23.03
2022-08-01T20:57:25.554Z,23.11
2022-08-01T21:00:02.613Z,23.11
2022-08-01T21:03:11.684Z,23.09
2022-08-01T21:05:42.862Z,23.03
2022-08-01T21:08:50.325Z,22.85
2022-08-01T21:11:21.528Z,22.85
2022-08-01T21:13:51.195Z,22.81
2022-08-01T21:16:26.584Z,22.82
2022-08-01T21:19:18.421Z,22.83
2022-08-01T21:21:51.355Z,22.87
2022-08-01T21:24:23.365Z,22.73
2022-08-01T21:26:52.136Z,22.69
2022-08-01T21:29:22.544Z,22.65
2022-08-01T21:32:10.605Z,22.71
2022-08-01T21:34:39.676Z,22.63
2022-08-01T21:37:10.205Z,22.52
2022-08-01T21:39:38.570Z,22.54
2022-08-01T21:42:09.202Z,22.38
2022-08-01T21:44:39.952Z,22.28
2022-08-01T21:47:11.901Z,21.96
2022-08-01T21:49:40.621Z,22.02
2022-08-01T21:52:15.261Z,22.08
2022-08-01T21:55:00.364Z,22.02
2022-08-01T21:58:06.002Z,22.02
2022-08-01T22:00:39.332Z,22.02
2022-08-01T22:03:24.363Z,22.03
2022-08-01T22:05:54.284Z,21.99
2022-08-01T22:08:30.526Z,22.05
2022-08-01T22:11:00.810Z,21.91
2022-08-01T22:13:28.165Z,21.97
2022-08-01T22:15:57.417Z,21.94
2022-08-01T22:18:26.344Z,21.87
2022-08-01T22:20:53.982Z,21.75
2022-08-01T22:23:23.193Z,21.67
2022-08-01T22:25:54.788Z,21.73
2022-08-01T22:28:23.282Z,21.78
2022-08-01T22:30:52.136Z,21.65
2022-08-01T22:33:20.395Z,21.70
2022-08-01T22:35:52.924Z,21.60
2022-08-01T22:38:22.927Z,21.58
2022-08-01T22:40:59.036Z,21.60
2022-08-01T22:43:33.966Z,21.58
2022-08-01T22:46:11.283Z,21.50
2022-08-01T22:48:46.756Z,21.53
2022-08-01T22:51:56.047Z,21.47
2022-08-01T22:54:33.079Z,21.35
2022-08-01T22:57:07.091Z,21.47
2022-08-01T22:59:43.561Z,21.41
2022-08-01T23:02:16.288Z,21.41
2022-08-01T23:04:46.606Z,21.30
2022-08-01T23:07:19.041Z,21.22
2022-08-01T23:09:53.641Z,20.93
2022-08-01T23:12:25.802Z,20.98
2022-08-01T23:14:55.866Z,20.97
2022-08-01T23:17:27.580Z,20.97
2022-08-01T23:20:01.366Z,21.07
2022-08-01T23:22:31.671Z,21.13
2022-08-01T23:25:03.971Z,21.07
2022-08-01T23:27:54.110Z,21.10
2022-08-01T23:30:26.260Z,20.86
2022-08-01T23:32:57.835Z,20.99
2022-08-01T23:35:25.503Z,20.91
2022-08-01T23:37:53.210Z,20.94
2022-08-01T23:40:25.135Z,20.98
2022-08-01T23:42:56.037Z,20.92
2022-08-01T23:45:23.802Z,20.87
2022-08-01T23:47:52.280Z,20.92
2022-08-01T23:50:21.813Z,20.85
2022-08-01T23:52:53.224Z,20.84
2022-08-01T23:55:33.393Z,20.85
2022-08-01T23:58:06.952Z,20.77
